Time;durP1;ratioP1;P1;durP2;ratioP2;P2;SDS_P1;SDS_P2;PMS_P1;PMS_P2;Temp;Humidity;BMP_temperature;BMP_pressure;BME280_temperature;BME280_humidity;BME280_pressure;Samples;Min_cycle;Max_cycle;Signal;HPM_P1;HPM_P2
2024/03/14 00:01:00;;;;;;;3.67;3.37;;;;;;;8.29;73.34;96025.28;5115537;27;20247;-86
2024/03/14 00:03:28;;;;;;;3.47;3.17;;;;;;;8.11;72.48;96001.38;5106366;28;20196;-86
2024/03/14 00:05:55;;;;;;;3.20;3.00;;;;;;;8.30;73.02;96039.31;5075107;28;20284;-86
2024/03/14 00:08:22;;;;;;;2.90;2.70;;;;;;;8.08;73.08;96008.03;5108506;28;20226;-85
2024/03/14 00:10:50;;;;;;;3.63;3.33;;;;;;;7.46;73.99;95941.72;5101401;28;20638;-86
2024/03/14 00:13:18;;;;;;;4.70;4.30;;;;;;;7.65;75.97;95976.19;5083064;28;20290;-86
2024/03/14 00:15:45;;;;;;;4.13;3.80;;;;;;;7.49;77.04;95978.22;5094962;28;20674;-86
2024/03/14 00:18:11;;;;;;;4.17;3.77;;;;;;;7.80;76.62;96002.53;5094703;28;20201;-86
2024/03/14 00:20:42;;;;;;;4.60;4.20;;;;;;;7.63;78.24;96038.47;5102018;28;20191;-86
2024/03/14 00:23:10;;;;;;;4.87;4.47;;;;;;;7.52;78.95;96020.03;5116492;28;20191;-86
2024/03/14 00:25:37;;;;;;;4.83;3.70;;;;;;;7.62;76.95;95990.00;5114991;28;20224;-86
2024/03/14 00:28:04;;;;;;;5.03;4.53;;;;;;;7.69;77.95;96013.50;5114956;28;20214;-86
2024/03/14 00:30:31;;;;;;;8.30;4.23;;;;;;;7.62;77.52;95981.25;5115260;28;20194;-86
2024/03/14 00:32:59;;;;;;;4.17;3.77;;;;;;;7.54;77.81;96007.28;5114909;28;20190;-85
2024/03/14 00:35:27;;;;;;;4.23;3.90;;;;;;;7.17;78.46;95992.03;5110986;28;20195;-85
2024/03/14 00:37:54;;;;;;;4.67;4.27;;;;;;;7.29;78.52;96020.78;5108476;28;20201;-85
2024/03/14 00:40:22;;;;;;;4.73;3.37;;;;;;;7.41;78.26;95996.59;5109614;28;20200;-85
2024/03/14 00:42:51;;;;;;;4.90;4.37;;;;;;;7.41;78.16;95978.84;5113803;28;20294;-85
2024/03/14 00:45:19;;;;;;;4.00;3.70;;;;;;;7.33;77.42;95974.16;5114221;28;20202;-85
2024/03/14 00:47:46;;;;;;;3.87;3.53;;;;;;;7.45;77.86;95997.59;5114995;28;20186;-85
2024/03/14 00:50:15;;;;;;;4.07;3.67;;;;;;;7.18;78.10;95940.69;5114473;28;20195;-85
2024/03/14 00:52:43;;;;;;;3.47;3.17;;;;;;;7.52;77.91;95974.22;5115023;28;20198;-85
2024/03/14 00:55:11;;;;;;;4.83;4.07;;;;;;;7.67;77.78;95995.25;5115072;28;20202;-85
2024/03/14 00:57:39;;;;;;;5.53;4.30;;;;;;;7.52;77.69;96001.50;5114702;28;20673;-87
2024/03/14 01:00:11;;;;;;;3.50;3.20;;;;;;;7.51;78.13;96023.75;5113754;28;20218;-84
2024/03/14 01:02:37;;;;;;;4.30;3.90;;;;;;;7.28;77.77;95953.81;5114704;28;20281;-84
2024/03/14 01:05:05;;;;;;;3.53;3.23;;;;;;;7.39;77.85;95954.50;5104729;28;20249;-83
2024/03/14 01:07:33;;;;;;;4.03;3.63;;;;;;;7.73;77.71;96015.31;5100565;28;20685;-83
2024/03/14 01:09:59;;;;;;;4.17;3.77;;;;;;;7.28;78.41;95947.72;5091759;28;20444;-83
2024/03/14 01:12:29;;;;;;;4.50;4.10;;;;;;;7.38;78.57;95966.16;5073906;28;20196;-83
2024/03/14 01:14:56;;;;;;;4.73;4.20;;;;;;;7.65;77.75;96012.50;5076333;28;20196;-83
2024/03/14 01:17:23;;;;;;;4.57;4.17;;;;;;;7.49;76.96;95961.56;5077547;28;20571;-83
2024/03/14 01:19:51;;;;;;;4.90;4.00;;;;;;;7.60;77.24;95976.25;5076991;28;20200;-84
2024/03/14 01:22:18;;;;;;;3.87;3.57;;;;;;;7.70;77.13;95999.19;5097102;28;20242;-83
2024/03/14 01:24:45;;;;;;;4.87;4.40;;;;;;;7.46;77.56;95984.06;5111581;27;20197;-83
2024/03/14 01:27:12;;;;;;;4.00;3.67;;;;;;;7.15;77.74;95941.25;5118357;27;20199;-89
2024/03/14 01:29:39;;;;;;;4.90;4.50;;;;;;;7.71;77.02;96003.44;5118856;27;20241;-87
2024/03/14 01:32:06;;;;;;;4.40;3.93;;;;;;;7.78;76.99;96002.03;5117262;27;20221;-88
2024/03/14 01:34:33;;;;;;;5.87;4.17;;;;;;;7.77;76.47;95994.34;5109831;27;20297;-88
2024/03/14 01:37:03;;;;;;;4.13;3.80;;;;;;;7.39;76.54;95935.97;5110401;28;20235;-87
2024/03/14 01:39:31;;;;;;;4.43;4.10;;;;;;;7.70;76.50;95997.31;5103862;28;20204;-87
2024/03/14 01:41:58;;;;;;;5.07;4.57;;;;;;;7.42;76.77;95950.50;5098075;28;20729;-87
2024/03/14 01:44:25;;;;;;;4.70;4.23;;;;;;;7.68;76.42;95982.81;5098715;28;20198;-88
2024/03/14 01:46:54;;;;;;;4.67;4.27;;;;;;;7.64;76.15;95995.03;5098254;28;20199;-87
2024/03/14 01:49:21;;;;;;;4.30;3.60;;;;;;;7.59;76.50;95978.13;5097950;28;20219;-87
2024/03/14 01:51:48;;;;;;;4.23;3.87;;;;;;;7.84;75.98;95997.44;5097892;28;20207;-87
2024/03/14 01:54:16;;;;;;;4.77;4.27;;;;;;;7.64;75.75;95968.53;5080808;28;20203;-87
2024/03/14 01:56:57;;;;;;;5.00;4.50;;;;;;;7.78;75.98;96001.22;5096728;28;20207;-87
2024/03/14 01:59:27;;;;;;;4.77;4.23;;;;;;;7.72;75.68;95994.41;5099745;28;20223;-87
2024/03/14 02:01:55;;;;;;;4.40;4.00;;;;;;;7.03;76.66;95925.72;5103252;28;20705;-88
2024/03/14 02:04:23;;;;;;;4.37;3.97;;;;;;;7.49;76.62;95999.41;5095979;28;20231;-88
2024/03/14 02:06:51;;;;;;;4.47;3.90;;;;;;;7.07;76.14;95970.94;5081531;28;20217;-88
2024/03/14 02:09:22;;;;;;;4.60;4.20;;;;;;;7.41;76.98;95992.06;5097689;28;20219;-87
2024/03/14 02:11:50;;;;;;;5.10;4.10;;;;;;;7.48;77.34;96003.13;5098209;28;20196;-87
2024/03/14 02:14:17;;;;;;;3.83;3.53;;;;;;;7.44;77.29;95996.03;5097066;28;20261;-86
2024/03/14 02:16:44;;;;;;;4.50;3.63;;;;;;;7.59;77.34;96015.19;5081098;28;20268;-87
2024/03/14 02:19:13;;;;;;;3.70;3.40;;;;;;;7.17;77.16;95948.91;5101091;28;20207;-86
2024/03/14 02:21:40;;;;;;;4.57;4.17;;;;;;;7.66;76.81;96006.13;5076960;28;20207;-86
2024/03/14 02:24:08;;;;;;;4.30;3.77;;;;;;;7.05;77.91;95960.66;5076950;28;20196;-87
2024/03/14 02:26:41;;;;;;;5.77;4.10;;;;;;;7.45;77.72;96005.53;5100213;27;20244;-85
2024/03/14 02:29:08;;;;;;;4.60;4.10;;;;;;;7.33;77.86;96009.34;5115183;27;20670;-86
2024/03/14 02:31:35;;;;;;;4.33;3.93;;;;;;;7.39;77.86;96007.44;5099241;27;20205;-86
2024/03/14 02:34:04;;;;;;;4.30;3.67;;;;;;;7.39;78.37;96004.78;5099252;27;20195;-85
2024/03/14 02:36:32;;;;;;;4.53;4.13;;;;;;;7.26;78.39;95990.34;5117172;27;20191;-85
2024/03/14 02:38:59;;;;;;;4.10;3.70;;;;;;;7.48;78.37;95999.69;5116950;27;20202;-86
2024/03/14 02:41:26;;;;;;;4.20;3.80;;;;;;;7.59;78.37;95999.31;5099835;27;20580;-85
2024/03/14 02:43:53;;;;;;;3.50;3.20;;;;;;;7.72;78.20;95994.41;5100085;27;20289;-87
2024/03/14 02:46:20;;;;;;;4.27;3.87;;;;;;;7.71;78.25;95995.50;5116468;27;20685;-87
2024/03/14 02:48:47;;;;;;;6.50;3.50;;;;;;;7.69;78.71;95990.47;5116422;27;20282;-87
2024/03/14 02:51:14;;;;;;;4.40;4.00;;;;;;;7.60;77.30;95942.63;5097902;27;20294;-87
2024/03/14 02:53:41;;;;;;;5.70;4.17;;;;;;;7.82;77.85;95994.28;5116762;27;20198;-84
2024/03/14 02:56:09;;;;;;;4.20;3.80;;;;;;;7.54;77.50;95941.09;5105743;28;20554;-84
2024/03/14 02:58:37;;;;;;;3.90;3.60;;;;;;;7.41;78.57;95935.69;5106563;27;20187;-84
2024/03/14 03:01:08;;;;;;;4.47;4.07;;;;;;;7.46;78.53;95949.66;5108142;28;20305;-84
2024/03/14 03:03:37;;;;;;;3.90;3.60;;;;;;;7.69;79.04;95987.03;5076219;28;20229;-84
2024/03/14 03:06:05;;;;;;;3.63;3.33;;;;;;;7.83;78.49;96006.47;5076024;28;20234;-84
2024/03/14 03:08:32;;;;;;;4.37;3.50;;;;;;;7.54;77.46;95962.28;5076347;28;20238;-84
2024/03/14 03:10:59;;;;;;;4.13;3.63;;;;;;;7.57;78.09;95985.56;5075209;28;20299;-83
2024/03/14 03:13:26;;;;;;;3.63;3.33;;;;;;;7.72;77.71;96005.00;5074933;28;20196;-82
2024/03/14 03:15:54;;;;;;;3.53;3.23;;;;;;;7.64;77.28;95995.81;5075328;28;20253;-84
2024/03/14 03:18:21;;;;;;;2.80;2.60;;;;;;;7.38;78.27;95966.16;5081854;27;20187;-84
2024/03/14 03:20:48;;;;;;;2.53;2.33;;;;;;;7.64;77.59;96010.91;5115707;27;20198;-84
2024/03/14 03:23:17;;;;;;;2.83;2.63;;;;;;;7.72;77.43;96007.66;5115484;27;20195;-84
2024/03/14 03:25:44;;;;;;;3.00;2.80;;;;;;;7.46;77.23;95981.44;5113949;27;20202;-83
2024/03/14 03:28:10;;;;;;;2.97;2.70;;;;;;;7.13;76.97;95934.66;5098043;28;20201;-83
2024/03/14 03:30:38;;;;;;;2.80;2.50;;;;;;;7.79;76.20;96000.16;5074572;28;20224;-83
2024/03/14 03:33:05;;;;;;;3.00;2.80;;;;;;;7.69;77.36;96009.00;5074650;28;20204;-84
2024/03/14 03:35:33;;;;;;;2.87;2.67;;;;;;;7.49;77.83;95986.16;5074592;28;20235;-83
2024/03/14 03:38:00;;;;;;;4.97;4.17;;;;;;;7.09;78.51;95966.19;5075410;28;20222;-89
2024/03/14 03:40:30;;;;;;;5.53;3.60;;;;;;;7.34;79.46;96010.13;5075779;28;20203;-86
2024/03/14 03:42:57;;;;;;;3.77;3.27;;;;;;;7.39;79.76;96014.59;5059452;28;20206;-86
2024/03/14 03:45:24;;;;;;;4.10;3.60;;;;;;;7.47;79.77;96012.16;5074730;28;20196;-88
2024/03/14 03:47:52;;;;;;;4.10;3.77;;;;;;;7.55;79.30;96010.72;5058831;28;20211;-84
2024/03/14 03:50:18;;;;;;;4.10;3.13;;;;;;;7.52;79.43;96016.59;5075152;28;20216;-85
2024/03/14 03:52:46;;;;;;;3.63;3.33;;;;;;;7.53;79.43;96024.25;5083221;28;20198;-85
2024/03/14 03:55:16;;;;;;;3.80;3.40;;;;;;;7.53;79.49;96028.75;5114500;28;20195;-85
2024/03/14 03:57:43;;;;;;;5.10;4.13;;;;;;;7.46;79.79;96007.13;5115023;27;20204;-85
2024/03/14 04:00:32;;;;;;;4.27;3.10;;;;;;;7.37;79.44;96006.16;5115073;27;20309;-85
2024/03/14 04:02:59;;;;;;;3.87;3.50;;;;;;;7.22;79.89;96001.78;5105319;27;20198;-85
2024/03/14 04:05:26;;;;;;;3.70;2.80;;;;;;;7.41;80.05;96023.84;5115392;28;20202;-85
2024/03/14 04:07:53;;;;;;;2.93;2.67;;;;;;;7.02;79.84;95969.16;5115088;28;20209;-86
2024/03/14 04:10:23;;;;;;;3.10;2.63;;;;;;;7.46;79.22;96007.91;5114651;28;20616;-85
2024/03/14 04:12:51;;;;;;;3.47;3.13;;;;;;;7.31;78.66;95979.72;5115608;28;20205;-86
2024/03/14 04:15:18;;;;;;;5.30;4.80;;;;;;;7.47;78.32;96022.75;5115297;28;20685;-85
2024/03/14 04:17:45;;;;;;;10.27;9.37;;;;;;;7.15;78.69;95966.91;5114841;28;20198;-85
2024/03/14 04:20:12;;;;;;;6.17;5.67;;;;;;;7.17;78.80;95999.97;5111932;28;20195;-85
2024/03/14 04:22:40;;;;;;;5.10;4.60;;;;;;;7.45;78.38;96013.50;5098446;28;20221;-85
2024/03/14 04:25:11;;;;;;;3.87;3.57;;;;;;;7.67;77.66;96031.56;5115368;28;20233;-85
2024/03/14 04:27:41;;;;;;;3.17;2.87;;;;;;;7.68;76.55;96006.63;5115987;28;20263;-85
2024/03/14 04:30:10;;;;;;;3.00;2.80;;;;;;;7.63;77.02;96026.03;5110405;28;20210;-85
2024/03/14 04:32:39;;;;;;;2.80;2.60;;;;;;;7.49;78.15;96031.19;5111365;28;20195;-86
2024/03/14 04:35:10;;;;;;;3.17;2.63;;;;;;;7.55;78.05;96029.25;5081632;28;20206;-85
2024/03/14 04:37:38;;;;;;;3.23;3.03;;;;;;;7.05;78.66;96018.88;5096879;28;20277;-86
2024/03/14 04:40:11;;;;;;;5.17;4.67;;;;;;;6.91;81.10;96031.13;5113838;28;20235;-86
2024/03/14 04:42:40;;;;;;;4.67;4.27;;;;;;;6.92;80.47;96005.47;5112826;28;20294;-87
2024/03/14 04:45:09;;;;;;;4.20;3.80;;;;;;;7.21;79.70;96013.44;5106717;28;20193;-87
2024/03/14 04:47:38;;;;;;;3.90;3.50;;;;;;;7.27;79.71;96013.09;5086846;28;20191;-87
2024/03/14 04:50:08;;;;;;;8.47;6.83;;;;;;;7.18;79.49;96012.13;5096963;28;20291;-87
2024/03/14 04:52:35;;;;;;;10.93;9.43;;;;;;;7.07;80.58;96053.78;5093079;27;20199;-87
2024/03/14 04:55:05;;;;;;;11.13;7.37;;;;;;;7.17;80.36;96020.38;5104180;28;20199;-86
2024/03/14 04:57:33;;;;;;;17.07;13.27;;;;;;;7.02;79.88;95984.22;5106105;27;20194;-86
2024/03/14 05:00:00;;;;;;;19.60;15.07;;;;;;;7.43;79.41;96050.03;5118780;27;20317;-87
2024/03/14 05:02:29;;;;;;;20.20;15.87;;;;;;;7.07;80.14;96005.34;5110837;28;20219;-87
2024/03/14 05:04:57;;;;;;;15.73;11.50;;;;;;;7.48;80.02;96045.50;5112824;27;20542;-88
2024/03/14 05:07:25;;;;;;;19.53;14.70;;;;;;;7.05;79.20;96005.63;5102969;27;20238;-87
2024/03/14 05:09:54;;;;;;;15.67;13.03;;;;;;;7.36;80.32;96053.03;5118647;27;20229;-87
2024/03/14 05:12:22;;;;;;;17.23;14.70;;;;;;;7.14;80.23;96010.34;5098009;27;20204;-87
2024/03/14 05:14:49;;;;;;;16.00;12.60;;;;;;;7.33;80.56;96048.28;5118086;27;20221;-87
2024/03/14 05:17:16;;;;;;;14.37;12.40;;;;;;;7.34;80.82;96052.50;5116473;27;20668;-86
2024/03/14 05:19:43;;;;;;;9.00;8.00;;;;;;;7.63;78.94;96052.50;5118210;27;20214;-84
2024/03/14 05:22:10;;;;;;;8.47;7.60;;;;;;;7.63;78.85;96060.47;5101614;27;20255;-87
2024/03/14 05:24:37;;;;;;;16.47;8.47;;;;;;;7.60;79.30;96053.84;5117736;27;20203;-88
2024/03/14 05:27:04;;;;;;;11.20;10.00;;;;;;;7.57;79.95;96050.97;5101482;27;20198;-87
2024/03/14 05:29:31;;;;;;;22.33;17.57;;;;;;;7.57;80.26;96059.69;5116705;27;20218;-87
2024/03/14 05:31:59;;;;;;;17.30;15.03;;;;;;;7.60;80.65;96061.78;5101364;28;20195;-90
2024/03/14 05:34:26;;;;;;;15.03;12.60;;;;;;;7.59;80.43;96070.03;5079629;28;20199;-84
2024/03/14 05:36:54;;;;;;;13.83;10.57;;;;;;;7.64;80.85;96064.69;5097221;28;20287;-85
2024/03/14 05:39:24;;;;;;;8.77;7.20;;;;;;;7.78;79.87;96068.25;5092574;28;20205;-85
2024/03/14 05:41:51;;;;;;;8.70;7.20;;;;;;;7.71;78.23;96067.00;5076643;28;20196;-85
2024/03/14 05:44:18;;;;;;;7.43;6.40;;;;;;;7.74;78.22;96071.72;5076423;28;20674;-86
2024/03/14 05:46:46;;;;;;;6.83;6.13;;;;;;;7.77;78.35;96073.81;5077228;28;20245;-85
2024/03/14 05:49:13;;;;;;;7.03;6.33;;;;;;;7.75;78.55;96073.31;5076620;28;20204;-84
2024/03/14 05:51:40;;;;;;;9.37;7.67;;;;;;;7.78;79.50;96076.22;5076898;28;20223;-85
2024/03/14 05:54:08;;;;;;;10.63;9.17;;;;;;;7.69;80.41;96077.88;5060086;28;20258;-85
2024/03/14 05:56:35;;;;;;;12.33;9.97;;;;;;;7.01;81.64;96023.13;5112038;27;20205;-84
2024/03/14 05:59:02;;;;;;;11.20;8.77;;;;;;;7.49;81.78;96092.09;5116365;27;20190;-85
2024/03/14 06:01:29;;;;;;;10.80;8.67;;;;;;;7.56;81.53;96081.97;5115956;27;20269;-84
2024/03/14 06:03:56;;;;;;;10.33;8.00;;;;;;;7.53;80.92;96049.94;5115660;27;20199;-85
2024/03/14 06:06:23;;;;;;;10.40;7.97;;;;;;;7.76;80.37;96082.84;5112469;28;20240;-85
2024/03/14 06:08:50;;;;;;;10.80;7.03;;;;;;;7.75;79.42;96074.09;5101851;27;20687;-85
2024/03/14 06:11:17;;;;;;;9.73;6.70;;;;;;;7.43;79.07;96037.59;5115772;27;20264;-85
2024/03/14 06:13:45;;;;;;;9.30;7.97;;;;;;;7.44;79.24;96043.69;5116057;27;20190;-85
2024/03/14 06:16:12;;;;;;;9.23;8.07;;;;;;;7.52;79.35;96053.69;5116106;27;20289;-85
2024/03/14 06:18:39;;;;;;;14.13;9.17;;;;;;;7.65;79.84;96076.06;5109334;28;20196;-85
2024/03/14 06:21:07;;;;;;;8.50;7.63;;;;;;;7.55;79.38;96069.81;5104178;27;20575;-85
2024/03/14 06:23:34;;;;;;;16.67;12.73;;;;;;;7.81;79.77;96093.38;5110264;28;20550;-85
2024/03/14 06:26:02;;;;;;;10.40;8.20;;;;;;;7.55;79.84;96040.66;5107850;28;20230;-85
2024/03/14 06:28:28;;;;;;;8.90;7.23;;;;;;;7.85;80.10;96074.00;5112952;27;20206;-85
2024/03/14 06:30:55;;;;;;;6.70;6.03;;;;;;;8.01;79.94;96095.03;5092057;28;20220;-84
2024/03/14 06:33:22;;;;;;;6.80;6.20;;;;;;;7.83;79.42;96092.03;5091288;27;20195;-84
2024/03/14 06:35:49;;;;;;;10.37;8.47;;;;;;;7.82;79.29;96092.31;5115312;27;20205;-84
2024/03/14 06:38:16;;;;;;;7.87;7.07;;;;;;;7.83;79.06;96084.09;5107910;28;20780;-83
2024/03/14 06:40:46;;;;;;;6.57;5.97;;;;;;;7.83;79.77;96073.50;5106471;27;20596;-84
2024/03/14 06:43:12;;;;;;;6.07;5.47;;;;;;;8.21;78.83;96117.88;5115910;27;20190;-84
2024/03/14 06:45:39;;;;;;;8.10;6.97;;;;;;;7.74;78.45;96064.56;5115141;27;20198;-84
2024/03/14 06:48:09;;;;;;;11.13;9.93;;;;;;;8.17;78.70;96120.31;5115486;27;20285;-84
2024/03/14 06:50:35;;;;;;;5.93;5.40;;;;;;;8.08;78.02;96120.13;5109616;28;20216;-84
2024/03/14 06:53:02;;;;;;;6.73;5.23;;;;;;;7.81;77.04;96096.03;5108811;27;20267;-83
2024/03/14 06:55:30;;;;;;;4.90;4.43;;;;;;;8.06;77.86;96124.16;5114719;27;20810;-84
2024/03/14 06:57:57;;;;;;;6.57;6.00;;;;;;;7.99;78.57;96129.78;5115828;27;20205;-84
2024/03/14 07:00:24;;;;;;;5.37;4.87;;;;;;;7.91;78.13;96093.28;5101752;27;20287;-85
2024/03/14 07:02:52;;;;;;;7.20;6.37;;;;;;;8.27;78.48;96127.38;5101806;28;20200;-85
2024/03/14 07:05:21;;;;;;;8.07;7.27;;;;;;;8.11;79.52;96086.19;5113897;27;20273;-86
2024/03/14 07:07:49;;;;;;;6.63;6.03;;;;;;;8.22;79.26;96122.13;5106956;27;20191;-86
2024/03/14 07:10:16;;;;;;;7.90;6.43;;;;;;;8.08;80.49;96130.72;5095613;27;20218;-87
2024/03/14 07:12:45;;;;;;;7.13;5.93;;;;;;;8.00;80.33;96118.09;5114217;27;20190;-84
2024/03/14 07:15:13;;;;;;;8.10;6.97;;;;;;;8.00;81.07;96147.25;5113707;27;20191;-85
2024/03/14 07:17:43;;;;;;;6.80;6.10;;;;;;;8.00;81.47;96146.47;5114790;27;20205;-85
2024/03/14 07:20:09;;;;;;;7.37;6.67;;;;;;;7.74;81.65;96096.34;5115266;27;20205;-85
2024/03/14 07:22:40;;;;;;;7.13;6.40;;;;;;;7.76;81.33;96085.50;5114035;27;20487;-85
2024/03/14 07:25:08;;;;;;;8.03;7.23;;;;;;;7.94;80.40;96132.47;5115132;27;20195;-86
2024/03/14 07:27:35;;;;;;;8.20;7.47;;;;;;;8.09;81.63;96134.16;5112228;27;20237;-84
2024/03/14 07:30:04;;;;;;;7.07;6.37;;;;;;;8.31;80.58;96137.13;5093776;28;20203;-85
2024/03/14 07:32:31;;;;;;;5.50;5.00;;;;;;;7.95;80.83;96109.41;5094404;28;20210;-85
2024/03/14 07:34:58;;;;;;;5.90;5.37;;;;;;;8.26;81.55;96136.41;5096430;27;20195;-86
2024/03/14 07:37:25;;;;;;;3.20;2.90;;;;;;;7.85;76.51;96089.88;5105339;27;20263;-86
2024/03/14 07:39:52;;;;;;;5.00;3.10;;;;;;;8.05;76.31;96114.59;5113839;27;20553;-86
2024/03/14 07:42:20;;;;;;;2.80;2.60;;;;;;;8.24;76.19;96130.56;5115140;27;20289;-87
2024/03/14 07:44:47;;;;;;;3.97;3.57;;;;;;;8.24;76.15;96131.34;5096267;28;20200;-86
2024/03/14 07:47:19;;;;;;;2.83;2.63;;;;;;;8.38;75.96;96144.78;5108662;27;20199;-85
2024/03/14 07:49:47;;;;;;;2.97;2.77;;;;;;;8.11;75.40;96102.09;5114814;27;20285;-85
2024/03/14 07:52:15;;;;;;;4.37;3.30;;;;;;;8.27;74.76;96103.50;5098638;28;20222;-84
2024/03/14 07:54:44;;;;;;;4.47;3.10;;;;;;;8.50;74.85;96144.38;5108662;28;20195;-85
2024/03/14 07:57:13;;;;;;;2.20;2.00;;;;;;;8.50;73.66;96126.59;5111662;27;20633;-84
2024/03/14 07:59:40;;;;;;;3.73;2.40;;;;;;;8.67;74.00;96159.81;5104020;27;20238;-83
2024/03/14 08:02:07;;;;;;;2.47;2.27;;;;;;;8.76;74.14;96152.81;5113964;27;20199;-84
2024/03/14 08:04:34;;;;;;;6.93;2.63;;;;;;;8.60;73.69;96104.47;5114547;28;20198;-86
2024/03/14 08:07:10;;;;;;;2.57;2.37;;;;;;;8.50;71.68;96101.94;5103225;28;20203;-86
2024/03/14 08:09:38;;;;;;;2.93;2.60;;;;;;;8.69;71.68;96136.47;5112084;28;20197;-84
2024/03/14 08:12:05;;;;;;;4.60;2.13;;;;;;;8.69;72.19;96131.16;5114754;28;20688;-85
2024/03/14 08:14:33;;;;;;;2.23;1.93;;;;;;;8.83;71.63;96124.06;5104945;28;20199;-84
2024/03/14 08:17:06;;;;;;;2.20;2.00;;;;;;;8.92;70.76;96129.53;5084630;28;20616;-85
2024/03/14 08:19:34;;;;;;;2.43;1.93;;;;;;;8.99;71.33;96125.44;5110191;28;20670;-85
2024/03/14 08:22:06;;;;;;;2.93;2.73;;;;;;;9.37;70.96;96146.69;5103527;28;20684;-85
2024/03/14 08:24:42;;;;;;;3.63;2.97;;;;;;;9.31;70.20;96150.47;5115867;27;20560;-85
2024/03/14 08:27:10;;;;;;;2.60;2.40;;;;;;;9.26;70.72;96142.59;5112344;27;20186;-85
2024/03/14 08:29:37;;;;;;;2.17;2.07;;;;;;;8.98;69.50;96088.56;5105637;28;20198;-84
2024/03/14 08:32:04;;;;;;;1.93;1.73;;;;;;;9.38;70.58;96131.53;5109021;27;20203;-85
2024/03/14 08:34:31;;;;;;;1.93;1.80;;;;;;;9.23;69.74;96112.09;5099073;27;20194;-85
2024/03/14 08:36:58;;;;;;;2.20;2.00;;;;;;;9.50;69.15;96147.81;5108549;27;20571;-86
2024/03/14 08:39:26;;;;;;;2.30;2.10;;;;;;;9.59;68.26;96153.25;5103904;28;20199;-86
2024/03/14 08:41:53;;;;;;;1.57;1.47;;;;;;;9.49;66.16;96151.56;5110331;27;20584;-86
2024/03/14 08:44:23;;;;;;;1.37;1.27;;;;;;;9.50;65.88;96155.78;5104964;28;20195;-85
2024/03/14 08:46:51;;;;;;;2.03;1.80;;;;;;;9.44;66.77;96120.50;5116202;27;20649;-85
2024/03/14 08:49:17;;;;;;;1.80;1.70;;;;;;;9.49;68.11;96117.81;5109643;28;20540;-86
2024/03/14 08:51:45;;;;;;;3.50;2.83;;;;;;;9.60;66.99;96144.19;5102092;27;20222;-86
2024/03/14 08:54:28;;;;;;;2.30;2.10;;;;;;;9.44;68.05;96117.84;5117585;27;20195;-86
2024/03/14 08:56:55;;;;;;;3.90;2.00;;;;;;;9.68;67.67;96162.13;5094682;27;20194;-86
2024/03/14 08:59:22;;;;;;;4.97;4.47;;;;;;;9.90;68.35;96150.88;5109157;27;20226;-85
2024/03/14 09:01:50;;;;;;;4.60;3.77;;;;;;;10.04;67.45;96160.47;5114579;27;20282;-86
2024/03/14 09:04:17;;;;;;;5.07;3.93;;;;;;;10.00;69.04;96156.03;5106405;27;20634;-86
2024/03/14 09:06:45;;;;;;;1.90;1.80;;;;;;;9.93;68.19;96159.06;5098488;28;20196;-84
2024/03/14 09:09:23;;;;;;;6.37;3.43;;;;;;;9.96;69.26;96169.13;5095448;27;20567;-86
2024/03/14 09:11:51;;;;;;;2.80;2.60;;;;;;;10.15;67.72;96145.13;5118611;27;20305;-86
2024/03/14 09:14:17;;;;;;;2.40;2.03;;;;;;;10.33;66.89;96154.13;5116884;27;20657;-86
2024/03/14 09:16:45;;;;;;;2.57;1.90;;;;;;;10.35;65.39;96127.25;5104679;27;20206;-86
2024/03/14 09:19:13;;;;;;;2.40;2.20;;;;;;;10.57;65.11;96140.66;5117142;27;20252;-86
2024/03/14 09:21:40;;;;;;;2.20;1.90;;;;;;;10.61;64.78;96151.47;5116597;27;20664;-86
2024/03/14 09:24:11;;;;;;;2.23;2.03;;;;;;;10.67;65.69;96148.41;5117147;27;20195;-89
2024/03/14 09:26:38;;;;;;;2.70;2.50;;;;;;;10.28;65.41;96101.03;5103769;27;20198;-86
2024/03/14 09:29:05;;;;;;;1.57;1.47;;;;;;;10.72;64.10;96158.16;5116729;27;20203;-85
2024/03/14 09:31:32;;;;;;;1.63;1.53;;;;;;;10.72;62.46;96142.97;5112905;27;20219;-85
2024/03/14 09:34:00;;;;;;;1.70;1.60;;;;;;;10.60;62.88;96150.69;5108926;27;20191;-86
2024/03/14 09:36:31;;;;;;;4.67;3.83;;;;;;;10.61;64.79;96130.97;5104325;27;20653;-85
2024/03/14 09:38:58;;;;;;;1.80;1.50;;;;;;;10.84;61.63;96120.38;5118314;27;20255;-84
2024/03/14 09:41:25;;;;;;;2.13;1.93;;;;;;;11.12;62.57;96147.78;5117589;27;20210;-86
2024/03/14 09:43:52;;;;;;;1.97;1.87;;;;;;;10.96;62.36;96104.72;5116028;27;20199;-85
2024/03/14 09:46:20;;;;;;;1.97;1.80;;;;;;;11.15;62.33;96145.28;5104731;28;20244;-86
2024/03/14 09:48:47;;;;;;;1.90;1.80;;;;;;;10.65;62.33;96094.72;5112287;27;20206;-86
2024/03/14 09:51:13;;;;;;;28.03;14.13;;;;;;;11.60;58.77;96084.00;5116382;27;20301;-86
2024/03/14 09:53:40;;;;;;;5.63;4.17;;;;;;;12.52;58.00;96147.56;5106828;28;20200;-85
2024/03/14 09:56:08;;;;;;;3.33;2.60;;;;;;;12.52;57.62;96104.88;5097633;27;20201;-86
2024/03/14 09:58:35;;;;;;;1.87;1.67;;;;;;;12.47;56.67;96143.94;5116223;27;20195;-85
2024/03/14 10:01:03;;;;;;;1.70;1.53;;;;;;;12.02;57.04;96142.47;5105423;28;20239;-86
2024/03/14 10:03:30;;;;;;;1.80;1.70;;;;;;;11.43;56.49;96147.88;5115653;27;20572;-86
2024/03/14 10:05:57;;;;;;;9.87;6.73;;;;;;;11.89;58.42;96134.25;5116155;27;20198;-85
2024/03/14 10:08:24;;;;;;;10.23;7.37;;;;;;;12.33;55.76;96100.56;5095918;28;20195;-86
2024/03/14 10:10:51;;;;;;;1.97;1.80;;;;;;;11.95;55.90;96087.69;5108106;27;20205;-85
2024/03/14 10:13:25;;;;;;;1.40;1.30;;;;;;;12.10;55.84;96070.50;5102451;27;20217;-85
2024/03/14 10:15:52;;;;;;;1.90;1.80;;;;;;;11.98;58.58;96135.09;5115704;27;20226;-86
2024/03/14 10:18:20;;;;;;;2.87;2.47;;;;;;;11.65;56.10;96112.41;5103870;27;20217;-91
2024/03/14 10:20:47;;;;;;;1.53;1.43;;;;;;;11.60;57.03;96137.31;5116568;27;20199;-85
2024/03/14 10:23:17;;;;;;;1.80;1.53;;;;;;;11.31;56.71;96121.75;5115969;27;20247;-86
2024/03/14 10:25:50;;;;;;;1.50;1.40;;;;;;;11.33;57.71;96145.44;5098915;28;20196;-86
2024/03/14 10:28:20;;;;;;;1.30;1.20;;;;;;;11.40;57.30;96135.94;5107479;27;20221;-86
2024/03/14 10:30:51;;;;;;;1.67;1.57;;;;;;;11.68;58.14;96144.59;5115606;27;20599;-86
2024/03/14 10:33:18;;;;;;;2.43;2.10;;;;;;;11.43;58.84;96111.34;5116239;27;20222;-86
2024/03/14 10:35:46;;;;;;;2.60;2.27;;;;;;;11.31;58.78;96081.00;5115913;27;20290;-85
2024/03/14 10:38:14;;;;;;;1.70;1.60;;;;;;;11.30;57.74;96133.47;5115325;27;20195;-86
2024/03/14 10:40:41;;;;;;;3.37;2.33;;;;;;;10.96;57.87;96116.13;5115605;27;20720;-86
2024/03/14 10:43:08;;;;;;;2.70;1.77;;;;;;;10.96;58.44;96126.00;5115663;27;20202;-86
2024/03/14 10:45:35;;;;;;;7.87;6.87;;;;;;;10.08;69.62;96123.44;5101620;27;20194;-86
2024/03/14 10:48:02;;;;;;;8.43;7.60;;;;;;;10.27;70.87;96152.66;5097643;28;20203;-86
2024/03/14 10:50:30;;;;;;;10.30;8.80;;;;;;;9.77;73.07;96120.53;5109833;28;20199;-87
2024/03/14 10:52:58;;;;;;;10.17;9.17;;;;;;;9.83;73.67;96119.34;5107249;27;20220;-85
2024/03/14 10:55:25;;;;;;;9.40;8.47;;;;;;;9.67;73.61;96110.06;5115731;27;20198;-86
2024/03/14 10:57:52;;;;;;;8.67;7.73;;;;;;;9.86;73.75;96133.94;5115338;27;20620;-85
2024/03/14 11:00:18;;;;;;;9.23;8.33;;;;;;;9.51;74.57;96101.56;5104635;28;20763;-86
2024/03/14 11:02:46;;;;;;;8.73;7.77;;;;;;;10.05;74.61;96172.66;5092103;28;20200;-86
2024/03/14 11:05:17;;;;;;;7.80;6.83;;;;;;;9.60;73.09;96128.25;5105833;27;20210;-86
2024/03/14 11:07:45;;;;;;;8.77;6.60;;;;;;;9.41;74.16;96110.50;5116185;27;20199;-86
2024/03/14 11:10:12;;;;;;;7.80;6.57;;;;;;;9.76;73.17;96164.94;5115392;27;20229;-86
2024/03/14 11:12:39;;;;;;;4.27;3.87;;;;;;;9.84;70.65;96144.09;5115612;27;20264;-86
2024/03/14 11:15:08;;;;;;;3.00;2.27;;;;;;;9.85;70.33;96130.50;5106104;27;20232;-86
2024/03/14 11:17:35;;;;;;;6.27;5.67;;;;;;;10.10;71.70;96145.19;5115527;27;20194;-86
2024/03/14 11:20:09;;;;;;;6.30;5.73;;;;;;;9.99;71.11;96110.03;5114938;27;20255;-86
2024/03/14 11:22:37;;;;;;;6.57;5.60;;;;;;;10.21;69.93;96167.88;5115966;27;20201;-86
2024/03/14 11:25:05;;;;;;;3.77;3.37;;;;;;;10.14;70.13;96132.09;5114965;27;20202;-86
2024/03/14 11:27:33;;;;;;;6.40;5.80;;;;;;;10.27;70.65;96166.75;5108033;28;20293;-86
2024/03/14 11:30:00;;;;;;;2.70;2.50;;;;;;;10.08;68.74;96118.13;5104284;27;20620;-86
2024/03/14 11:32:31;;;;;;;4.27;3.97;;;;;;;10.22;69.90;96140.22;5109458;28;20228;-86
2024/03/14 11:35:26;;;;;;;3.53;3.33;;;;;;;10.50;68.98;96150.91;5103192;27;20202;-87
2024/03/14 11:37:53;;;;;;;6.37;5.83;;;;;;;10.67;69.26;96150.28;5128813;27;20199;-86
2024/03/14 11:40:20;;;;;;;3.43;3.13;;;;;;;10.80;69.03;96146.81;5114064;27;20672;-86
2024/03/14 11:42:49;;;;;;;2.47;2.27;;;;;;;10.89;67.62;96123.75;5114777;28;20190;-85